sensor_id;sensor_type;location;lat;lon;timestamp;P1;durP1;ratioP1;P2;durP2;ratioP2
27939;SDS011;15275;51.716;14.324;2022-12-15T00:01:21;76.38;;;28.08;;
27939;SDS011;15275;51.716;14.324;2022-12-15T00:04:05;69.55;;;25.98;;
27939;SDS011;15275;51.716;14.324;2022-12-15T00:06:50;66.78;;;25.45;;
27939;SDS011;15275;51.716;14.324;2022-12-15T00:09:34;67.18;;;25.35;;
27939;SDS011;15275;51.716;14.324;2022-12-15T00:12:19;69.85;;;25.05;;
27939;SDS011;15275;51.716;14.324;2022-12-15T00:15:04;69.35;;;25.63;;
27939;SDS011;15275;51.716;14.324;2022-12-15T00:17:49;70.80;;;25.65;;
27939;SDS011;15275;51.716;14.324;2022-12-15T00:20:33;65.10;;;25.55;;
27939;SDS011;15275;51.716;14.324;2022-12-15T00:23:18;72.15;;;25.02;;
27939;SDS011;15275;51.716;14.324;2022-12-15T00:26:03;67.65;;;25.13;;
27939;SDS011;15275;51.716;14.324;2022-12-15T00:28:47;66.60;;;23.33;;
27939;SDS011;15275;51.716;14.324;2022-12-15T00:31:32;63.70;;;24.02;;
27939;SDS011;15275;51.716;14.324;2022-12-15T00:34:17;66.22;;;24.70;;
27939;SDS011;15275;51.716;14.324;2022-12-15T00:37:01;67.55;;;24.75;;
27939;SDS011;15275;51.716;14.324;2022-12-15T00:39:46;67.88;;;23.23;;
27939;SDS011;15275;51.716;14.324;2022-12-15T00:42:22;63.20;;;24.25;;
27939;SDS011;15275;51.716;14.324;2022-12-15T00:44:53;67.10;;;25.05;;
27939;SDS011;15275;51.716;14.324;2022-12-15T00:47:22;67.13;;;24.38;;
27939;SDS011;15275;51.716;14.324;2022-12-15T00:49:48;69.03;;;23.92;;
27939;SDS011;15275;51.716;14.324;2022-12-15T00:52:34;57.38;;;23.48;;
27939;SDS011;15275;51.716;14.324;2022-12-15T00:55:18;64.53;;;23.75;;
27939;SDS011;15275;51.716;14.324;2022-12-15T00:58:03;60.97;;;24.20;;
27939;SDS011;15275;51.716;14.324;2022-12-15T01:00:48;63.55;;;22.92;;
27939;SDS011;15275;51.716;14.324;2022-12-15T01:03:33;66.13;;;23.02;;
27939;SDS011;15275;51.716;14.324;2022-12-15T01:06:18;63.38;;;24.25;;
27939;SDS011;15275;51.716;14.324;2022-12-15T01:09:03;63.58;;;23.50;;
27939;SDS011;15275;51.716;14.324;2022-12-15T01:11:50;59.10;;;21.50;;
27939;SDS011;15275;51.716;14.324;2022-12-15T01:14:34;59.45;;;21.65;;
27939;SDS011;15275;51.716;14.324;2022-12-15T01:17:19;62.67;;;22.40;;
27939;SDS011;15275;51.716;14.324;2022-12-15T01:20:04;58.50;;;22.80;;
27939;SDS011;15275;51.716;14.324;2022-12-15T01:22:47;63.80;;;22.25;;
27939;SDS011;15275;51.716;14.324;2022-12-15T01:25:15;65.47;;;24.45;;
27939;SDS011;15275;51.716;14.324;2022-12-15T01:27:43;64.93;;;24.35;;
27939;SDS011;15275;51.716;14.324;2022-12-15T01:30:11;66.93;;;24.58;;
27939;SDS011;15275;51.716;14.324;2022-12-15T01:32:41;63.85;;;23.67;;
27939;SDS011;15275;51.716;14.324;2022-12-15T01:35:07;65.13;;;25.15;;
27939;SDS011;15275;51.716;14.324;2022-12-15T01:37:35;60.50;;;23.35;;
27939;SDS011;15275;51.716;14.324;2022-12-15T01:40:02;67.32;;;23.13;;
27939;SDS011;15275;51.716;14.324;2022-12-15T01:42:56;62.20;;;23.33;;
27939;SDS011;15275;51.716;14.324;2022-12-15T01:47:51;58.80;;;21.15;;
27939;SDS011;15275;51.716;14.324;2022-12-15T01:50:22;57.75;;;21.23;;
27939;SDS011;15275;51.716;14.324;2022-12-15T01:52:49;61.08;;;21.38;;
27939;SDS011;15275;51.716;14.324;2022-12-15T01:55:17;54.22;;;20.63;;
27939;SDS011;15275;51.716;14.324;2022-12-15T01:57:44;61.25;;;22.20;;
27939;SDS011;15275;51.716;14.324;2022-12-15T02:00:12;63.95;;;23.38;;
27939;SDS011;15275;51.716;14.324;2022-12-15T02:02:38;62.67;;;22.80;;
27939;SDS011;15275;51.716;14.324;2022-12-15T02:05:05;62.03;;;23.00;;
27939;SDS011;15275;51.716;14.324;2022-12-15T02:07:32;57.10;;;21.63;;
27939;SDS011;15275;51.716;14.324;2022-12-15T02:09:59;60.38;;;22.42;;
27939;SDS011;15275;51.716;14.324;2022-12-15T02:15:31;55.80;;;22.20;;
27939;SDS011;15275;51.716;14.324;2022-12-15T02:18:19;64.90;;;23.40;;
27939;SDS011;15275;51.716;14.324;2022-12-15T02:26:51;57.90;;;23.02;;
27939;SDS011;15275;51.716;14.324;2022-12-15T02:32:24;52.25;;;20.45;;
27939;SDS011;15275;51.716;14.324;2022-12-15T02:37:25;58.00;;;23.35;;
27939;SDS011;15275;51.716;14.324;2022-12-15T02:39:57;59.55;;;22.33;;
27939;SDS011;15275;51.716;14.324;2022-12-15T02:42:23;54.22;;;20.20;;
27939;SDS011;15275;51.716;14.324;2022-12-15T02:50:47;59.00;;;22.52;;
27939;SDS011;15275;51.716;14.324;2022-12-15T02:57:11;54.60;;;20.15;;
27939;SDS011;15275;51.716;14.324;2022-12-15T03:00:08;61.33;;;21.25;;
27939;SDS011;15275;51.716;14.324;2022-12-15T03:02:36;58.85;;;22.35;;
27939;SDS011;15275;51.716;14.324;2022-12-15T03:05:08;55.65;;;21.23;;
27939;SDS011;15275;51.716;14.324;2022-12-15T03:07:34;59.25;;;23.20;;
27939;SDS011;15275;51.716;14.324;2022-12-15T03:10:00;58.75;;;23.63;;
27939;SDS011;15275;51.716;14.324;2022-12-15T03:12:29;55.40;;;22.52;;
27939;SDS011;15275;51.716;14.324;2022-12-15T03:14:55;52.47;;;22.58;;
27939;SDS011;15275;51.716;14.324;2022-12-15T03:17:22;56.72;;;21.45;;
27939;SDS011;15275;51.716;14.324;2022-12-15T03:19:48;59.47;;;22.02;;
27939;SDS011;15275;51.716;14.324;2022-12-15T03:22:14;60.20;;;22.75;;
27939;SDS011;15275;51.716;14.324;2022-12-15T03:24:39;55.67;;;21.90;;
27939;SDS011;15275;51.716;14.324;2022-12-15T03:27:05;65.25;;;23.35;;
27939;SDS011;15275;51.716;14.324;2022-12-15T03:29:31;51.47;;;21.20;;
27939;SDS011;15275;51.716;14.324;2022-12-15T03:31:57;69.80;;;23.95;;
27939;SDS011;15275;51.716;14.324;2022-12-15T03:34:23;60.13;;;23.02;;
27939;SDS011;15275;51.716;14.324;2022-12-15T03:36:48;59.65;;;22.15;;
27939;SDS011;15275;51.716;14.324;2022-12-15T03:39:14;60.55;;;22.75;;
27939;SDS011;15275;51.716;14.324;2022-12-15T03:41:40;60.58;;;22.55;;
27939;SDS011;15275;51.716;14.324;2022-12-15T03:44:06;67.55;;;23.80;;
27939;SDS011;15275;51.716;14.324;2022-12-15T03:46:32;60.63;;;22.20;;
27939;SDS011;15275;51.716;14.324;2022-12-15T03:48:58;65.85;;;23.08;;
27939;SDS011;15275;51.716;14.324;2022-12-15T03:51:24;62.58;;;21.77;;
27939;SDS011;15275;51.716;14.324;2022-12-15T03:53:49;56.63;;;22.35;;
27939;SDS011;15275;51.716;14.324;2022-12-15T03:56:15;58.42;;;22.48;;
27939;SDS011;15275;51.716;14.324;2022-12-15T03:58:42;58.05;;;21.55;;
27939;SDS011;15275;51.716;14.324;2022-12-15T04:01:11;54.67;;;21.15;;
27939;SDS011;15275;51.716;14.324;2022-12-15T04:03:51;59.60;;;21.88;;
27939;SDS011;15275;51.716;14.324;2022-12-15T04:06:17;65.53;;;21.52;;
27939;SDS011;15275;51.716;14.324;2022-12-15T04:08:43;59.08;;;21.50;;
27939;SDS011;15275;51.716;14.324;2022-12-15T04:11:09;59.63;;;20.88;;
27939;SDS011;15275;51.716;14.324;2022-12-15T04:13:35;67.82;;;23.52;;
27939;SDS011;15275;51.716;14.324;2022-12-15T04:16:01;59.90;;;23.00;;
27939;SDS011;15275;51.716;14.324;2022-12-15T04:18:27;56.65;;;21.60;;
27939;SDS011;15275;51.716;14.324;2022-12-15T04:20:54;60.33;;;22.05;;
27939;SDS011;15275;51.716;14.324;2022-12-15T04:23:20;56.63;;;21.17;;
27939;SDS011;15275;51.716;14.324;2022-12-15T04:25:46;58.28;;;22.27;;
27939;SDS011;15275;51.716;14.324;2022-12-15T04:28:31;57.35;;;20.67;;
27939;SDS011;15275;51.716;14.324;2022-12-15T04:31:17;54.53;;;20.30;;
27939;SDS011;15275;51.716;14.324;2022-12-15T04:34:14;50.00;;;19.70;;
27939;SDS011;15275;51.716;14.324;2022-12-15T04:37:04;49.00;;;19.48;;
27939;SDS011;15275;51.716;14.324;2022-12-15T04:39:52;52.35;;;20.10;;
27939;SDS011;15275;51.716;14.324;2022-12-15T04:42:39;50.85;;;19.77;;
27939;SDS011;15275;51.716;14.324;2022-12-15T04:45:27;58.58;;;20.40;;
27939;SDS011;15275;51.716;14.324;2022-12-15T04:48:12;55.35;;;19.27;;
27939;SDS011;15275;51.716;14.324;2022-12-15T04:50:56;54.47;;;21.45;;
27939;SDS011;15275;51.716;14.324;2022-12-15T04:53:42;57.97;;;21.25;;
27939;SDS011;15275;51.716;14.324;2022-12-15T04:56:27;57.30;;;20.98;;
27939;SDS011;15275;51.716;14.324;2022-12-15T04:59:12;57.33;;;21.20;;
27939;SDS011;15275;51.716;14.324;2022-12-15T05:04:40;62.83;;;20.63;;
27939;SDS011;15275;51.716;14.324;2022-12-15T05:07:26;68.68;;;20.92;;
27939;SDS011;15275;51.716;14.324;2022-12-15T05:10:10;57.45;;;21.55;;
27939;SDS011;15275;51.716;14.324;2022-12-15T05:12:54;54.67;;;19.58;;
27939;SDS011;15275;51.716;14.324;2022-12-15T05:15:50;56.25;;;20.92;;
27939;SDS011;15275;51.716;14.324;2022-12-15T05:18:35;62.72;;;21.90;;
27939;SDS011;15275;51.716;14.324;2022-12-15T05:21:19;62.95;;;22.88;;
27939;SDS011;15275;51.716;14.324;2022-12-15T05:24:04;66.07;;;23.10;;
27939;SDS011;15275;51.716;14.324;2022-12-15T05:26:48;61.55;;;22.20;;
27939;SDS011;15275;51.716;14.324;2022-12-15T05:29:32;57.92;;;21.83;;
27939;SDS011;15275;51.716;14.324;2022-12-15T05:32:17;61.63;;;22.95;;
27939;SDS011;15275;51.716;14.324;2022-12-15T05:34:42;72.32;;;23.75;;
27939;SDS011;15275;51.716;14.324;2022-12-15T05:37:08;62.05;;;21.50;;
27939;SDS011;15275;51.716;14.324;2022-12-15T05:39:34;63.30;;;22.15;;
27939;SDS011;15275;51.716;14.324;2022-12-15T05:42:00;61.97;;;24.40;;
27939;SDS011;15275;51.716;14.324;2022-12-15T05:44:27;56.63;;;21.75;;
27939;SDS011;15275;51.716;14.324;2022-12-15T05:46:53;64.80;;;23.58;;
27939;SDS011;15275;51.716;14.324;2022-12-15T05:49:19;59.58;;;22.80;;
27939;SDS011;15275;51.716;14.324;2022-12-15T05:51:47;55.97;;;21.65;;
27939;SDS011;15275;51.716;14.324;2022-12-15T05:54:14;59.38;;;21.92;;
27939;SDS011;15275;51.716;14.324;2022-12-15T05:56:43;56.63;;;22.27;;
27939;SDS011;15275;51.716;14.324;2022-12-15T05:59:09;52.42;;;20.15;;
27939;SDS011;15275;51.716;14.324;2022-12-15T06:01:35;55.22;;;20.65;;
27939;SDS011;15275;51.716;14.324;2022-12-15T06:04:01;47.28;;;18.92;;
27939;SDS011;15275;51.716;14.324;2022-12-15T06:06:27;54.42;;;20.20;;
27939;SDS011;15275;51.716;14.324;2022-12-15T06:08:53;54.38;;;19.70;;
27939;SDS011;15275;51.716;14.324;2022-12-15T06:11:20;56.92;;;20.05;;
27939;SDS011;15275;51.716;14.324;2022-12-15T06:13:46;49.22;;;19.27;;
27939;SDS011;15275;51.716;14.324;2022-12-15T06:16:13;51.47;;;20.67;;
27939;SDS011;15275;51.716;14.324;2022-12-15T06:18:51;54.83;;;21.00;;
27939;SDS011;15275;51.716;14.324;2022-12-15T06:21:21;57.05;;;20.48;;
27939;SDS011;15275;51.716;14.324;2022-12-15T06:23:50;50.55;;;18.88;;
27939;SDS011;15275;51.716;14.324;2022-12-15T06:26:17;50.33;;;20.08;;
27939;SDS011;15275;51.716;14.324;2022-12-15T06:28:53;45.42;;;20.23;;
27939;SDS011;15275;51.716;14.324;2022-12-15T06:31:21;57.42;;;20.48;;
27939;SDS011;15275;51.716;14.324;2022-12-15T06:33:49;53.70;;;20.48;;
27939;SDS011;15275;51.716;14.324;2022-12-15T06:36:16;55.40;;;21.25;;
27939;SDS011;15275;51.716;14.324;2022-12-15T06:38:43;54.13;;;19.42;;
27939;SDS011;15275;51.716;14.324;2022-12-15T06:41:10;54.22;;;20.55;;
27939;SDS011;15275;51.716;14.324;2022-12-15T06:43:38;50.63;;;19.65;;
27939;SDS011;15275;51.716;14.324;2022-12-15T06:46:05;53.33;;;20.77;;
27939;SDS011;15275;51.716;14.324;2022-12-15T06:48:32;61.10;;;21.80;;
27939;SDS011;15275;51.716;14.324;2022-12-15T06:51:02;51.17;;;20.45;;
27939;SDS011;15275;51.716;14.324;2022-12-15T06:53:30;49.05;;;17.73;;
27939;SDS011;15275;51.716;14.324;2022-12-15T06:56:00;52.63;;;20.05;;
27939;SDS011;15275;51.716;14.324;2022-12-15T06:58:28;52.15;;;18.73;;
27939;SDS011;15275;51.716;14.324;2022-12-15T07:00:54;54.60;;;20.08;;
27939;SDS011;15275;51.716;14.324;2022-12-15T07:03:20;50.35;;;18.05;;
27939;SDS011;15275;51.716;14.324;2022-12-15T07:05:46;50.35;;;19.73;;
27939;SDS011;15275;51.716;14.324;2022-12-15T07:08:13;56.85;;;20.42;;
27939;SDS011;15275;51.716;14.324;2022-12-15T07:10:43;56.38;;;20.58;;
27939;SDS011;15275;51.716;14.324;2022-12-15T07:13:09;51.92;;;19.17;;
27939;SDS011;15275;51.716;14.324;2022-12-15T07:15:37;54.55;;;19.92;;
27939;SDS011;15275;51.716;14.324;2022-12-15T07:18:04;56.92;;;20.25;;
27939;SDS011;15275;51.716;14.324;2022-12-15T07:20:31;51.67;;;19.48;;
27939;SDS011;15275;51.716;14.324;2022-12-15T07:22:57;52.25;;;20.17;;
27939;SDS011;15275;51.716;14.324;2022-12-15T07:25:24;49.88;;;19.75;;
27939;SDS011;15275;51.716;14.324;2022-12-15T07:27:50;51.33;;;19.27;;
27939;SDS011;15275;51.716;14.324;2022-12-15T07:30:16;51.97;;;21.45;;
27939;SDS011;15275;51.716;14.324;2022-12-15T07:32:42;53.45;;;20.30;;
27939;SDS011;15275;51.716;14.324;2022-12-15T07:35:10;41.25;;;17.92;;
27939;SDS011;15275;51.716;14.324;2022-12-15T07:37:36;47.03;;;18.88;;
27939;SDS011;15275;51.716;14.324;2022-12-15T07:40:03;46.53;;;19.80;;
27939;SDS011;15275;51.716;14.324;2022-12-15T07:42:30;51.35;;;18.83;;
27939;SDS011;15275;51.716;14.324;2022-12-15T07:44:56;47.20;;;19.05;;
27939;SDS011;15275;51.716;14.324;2022-12-15T07:47:22;53.33;;;20.08;;
27939;SDS011;15275;51.716;14.324;2022-12-15T07:49:48;48.42;;;19.33;;
27939;SDS011;15275;51.716;14.324;2022-12-15T07:52:14;50.25;;;18.92;;
27939;SDS011;15275;51.716;14.324;2022-12-15T07:54:41;58.55;;;19.65;;
27939;SDS011;15275;51.716;14.324;2022-12-15T07:57:06;57.10;;;21.33;;
27939;SDS011;15275;51.716;14.324;2022-12-15T07:59:32;46.88;;;19.00;;
27939;SDS011;15275;51.716;14.324;2022-12-15T08:01:59;50.75;;;18.85;;
27939;SDS011;15275;51.716;14.324;2022-12-15T08:04:25;54.85;;;20.10;;
27939;SDS011;15275;51.716;14.324;2022-12-15T08:06:52;47.78;;;18.50;;
27939;SDS011;15275;51.716;14.324;2022-12-15T08:09:19;49.60;;;19.35;;
27939;SDS011;15275;51.716;14.324;2022-12-15T08:11:45;48.78;;;18.88;;
27939;SDS011;15275;51.716;14.324;2022-12-15T08:14:11;53.50;;;21.05;;
27939;SDS011;15275;51.716;14.324;2022-12-15T08:16:37;45.75;;;19.33;;
27939;SDS011;15275;51.716;14.324;2022-12-15T08:19:04;45.83;;;18.48;;
27939;SDS011;15275;51.716;14.324;2022-12-15T08:21:30;49.60;;;19.75;;
27939;SDS011;15275;51.716;14.324;2022-12-15T08:23:57;56.88;;;19.67;;
27939;SDS011;15275;51.716;14.324;2022-12-15T08:26:24;49.50;;;19.35;;
27939;SDS011;15275;51.716;14.324;2022-12-15T08:28:51;55.15;;;20.15;;
27939;SDS011;15275;51.716;14.324;2022-12-15T08:31:18;50.97;;;20.70;;
27939;SDS011;15275;51.716;14.324;2022-12-15T08:33:46;49.10;;;19.67;;
27939;SDS011;15275;51.716;14.324;2022-12-15T08:36:14;53.60;;;21.92;;
27939;SDS011;15275;51.716;14.324;2022-12-15T08:38:43;47.58;;;20.38;;
27939;SDS011;15275;51.716;14.324;2022-12-15T08:41:11;52.63;;;20.35;;
27939;SDS011;15275;51.716;14.324;2022-12-15T08:43:43;47.95;;;20.20;;
27939;SDS011;15275;51.716;14.324;2022-12-15T08:46:11;49.75;;;20.42;;
27939;SDS011;15275;51.716;14.324;2022-12-15T08:48:38;52.20;;;21.02;;
27939;SDS011;15275;51.716;14.324;2022-12-15T08:51:04;48.65;;;18.73;;
27939;SDS011;15275;51.716;14.324;2022-12-15T08:53:30;49.47;;;20.52;;
27939;SDS011;15275;51.716;14.324;2022-12-15T08:56:03;49.08;;;20.30;;
27939;SDS011;15275;51.716;14.324;2022-12-15T08:58:32;50.53;;;20.08;;
27939;SDS011;15275;51.716;14.324;2022-12-15T09:01:02;53.25;;;20.65;;
27939;SDS011;15275;51.716;14.324;2022-12-15T09:03:35;46.65;;;17.83;;
27939;SDS011;15275;51.716;14.324;2022-12-15T09:06:02;44.65;;;19.08;;
27939;SDS011;15275;51.716;14.324;2022-12-15T09:08:29;45.47;;;19.05;;
27939;SDS011;15275;51.716;14.324;2022-12-15T09:10:58;52.83;;;20.55;;
27939;SDS011;15275;51.716;14.324;2022-12-15T09:13:25;43.25;;;17.85;;
27939;SDS011;15275;51.716;14.324;2022-12-15T09:15:56;50.90;;;21.35;;
27939;SDS011;15275;51.716;14.324;2022-12-15T09:18:26;51.20;;;21.05;;
27939;SDS011;15275;51.716;14.324;2022-12-15T09:20:53;48.42;;;18.55;;
27939;SDS011;15275;51.716;14.324;2022-12-15T09:23:20;48.03;;;19.48;;
27939;SDS011;15275;51.716;14.324;2022-12-15T09:25:46;56.97;;;22.58;;
27939;SDS011;15275;51.716;14.324;2022-12-15T09:28:12;48.40;;;20.17;;
27939;SDS011;15275;51.716;14.324;2022-12-15T09:30:38;49.75;;;19.83;;
27939;SDS011;15275;51.716;14.324;2022-12-15T09:33:04;55.08;;;22.38;;
27939;SDS011;15275;51.716;14.324;2022-12-15T09:35:30;52.25;;;20.85;;
27939;SDS011;15275;51.716;14.324;2022-12-15T09:37:56;55.03;;;21.10;;
27939;SDS011;15275;51.716;14.324;2022-12-15T09:40:22;53.03;;;21.38;;
27939;SDS011;15275;51.716;14.324;2022-12-15T09:42:51;49.55;;;19.83;;
27939;SDS011;15275;51.716;14.324;2022-12-15T09:45:20;48.35;;;19.73;;
27939;SDS011;15275;51.716;14.324;2022-12-15T09:48:00;58.67;;;20.85;;
27939;SDS011;15275;51.716;14.324;2022-12-15T09:50:34;49.40;;;18.98;;
27939;SDS011;15275;51.716;14.324;2022-12-15T09:53:03;42.03;;;18.40;;
27939;SDS011;15275;51.716;14.324;2022-12-15T09:55:35;41.75;;;17.73;;
27939;SDS011;15275;51.716;14.324;2022-12-15T09:58:03;43.60;;;20.00;;
27939;SDS011;15275;51.716;14.324;2022-12-15T10:00:54;45.85;;;20.27;;
27939;SDS011;15275;51.716;14.324;2022-12-15T10:06:26;49.47;;;19.70;;
27939;SDS011;15275;51.716;14.324;2022-12-15T10:08:59;47.25;;;20.00;;
27939;SDS011;15275;51.716;14.324;2022-12-15T10:17:23;45.72;;;19.05;;
27939;SDS011;15275;51.716;14.324;2022-12-15T10:25:25;39.28;;;17.20;;
27939;SDS011;15275;51.716;14.324;2022-12-15T10:33:37;44.55;;;18.52;;
27939;SDS011;15275;51.716;14.324;2022-12-15T10:36:11;44.10;;;19.17;;
27939;SDS011;15275;51.716;14.324;2022-12-15T10:38:40;42.80;;;17.97;;
27939;SDS011;15275;51.716;14.324;2022-12-15T10:41:11;42.03;;;19.10;;
27939;SDS011;15275;51.716;14.324;2022-12-15T10:43:44;50.03;;;19.63;;
27939;SDS011;15275;51.716;14.324;2022-12-15T10:46:14;46.75;;;18.00;;
27939;SDS011;15275;51.716;14.324;2022-12-15T10:49:19;38.88;;;18.60;;
27939;SDS011;15275;51.716;14.324;2022-12-15T10:54:17;43.45;;;18.77;;
27939;SDS011;15275;51.716;14.324;2022-12-15T10:56:50;46.40;;;19.85;;
27939;SDS011;15275;51.716;14.324;2022-12-15T11:07:43;40.60;;;18.48;;
27939;SDS011;15275;51.716;14.324;2022-12-15T11:10:21;42.83;;;19.27;;
27939;SDS011;15275;51.716;14.324;2022-12-15T11:13:14;41.03;;;17.27;;
27939;SDS011;15275;51.716;14.324;2022-12-15T11:26:53;44.13;;;18.05;;
27939;SDS011;15275;51.716;14.324;2022-12-15T11:29:32;35.63;;;16.90;;
27939;SDS011;15275;51.716;14.324;2022-12-15T11:32:20;37.28;;;17.17;;
27939;SDS011;15275;51.716;14.324;2022-12-15T11:34:50;37.33;;;16.13;;
27939;SDS011;15275;51.716;14.324;2022-12-15T11:40:47;40.28;;;17.10;;
27939;SDS011;15275;51.716;14.324;2022-12-15T11:46:23;33.42;;;15.45;;
27939;SDS011;15275;51.716;14.324;2022-12-15T11:51:59;36.60;;;15.70;;
27939;SDS011;15275;51.716;14.324;2022-12-15T11:54:44;35.17;;;16.38;;
27939;SDS011;15275;51.716;14.324;2022-12-15T12:00:38;35.88;;;16.98;;
27939;SDS011;15275;51.716;14.324;2022-12-15T12:06:06;32.20;;;15.73;;
27939;SDS011;15275;51.716;14.324;2022-12-15T12:11:24;34.50;;;15.38;;
27939;SDS011;15275;51.716;14.324;2022-12-15T12:14:21;36.72;;;16.00;;
27939;SDS011;15275;51.716;14.324;2022-12-15T12:17:33;36.38;;;16.65;;
27939;SDS011;15275;51.716;14.324;2022-12-15T12:23:02;32.78;;;15.45;;
27939;SDS011;15275;51.716;14.324;2022-12-15T12:25:43;38.50;;;15.82;;
27939;SDS011;15275;51.716;14.324;2022-12-15T12:28:24;34.60;;;15.48;;
27939;SDS011;15275;51.716;14.324;2022-12-15T12:31:11;35.35;;;15.00;;
27939;SDS011;15275;51.716;14.324;2022-12-15T12:33:54;33.47;;;16.00;;
27939;SDS011;15275;51.716;14.324;2022-12-15T12:36:27;35.88;;;16.45;;
27939;SDS011;15275;51.716;14.324;2022-12-15T12:38:55;31.27;;;14.90;;
27939;SDS011;15275;51.716;14.324;2022-12-15T12:44:46;38.70;;;16.67;;
27939;SDS011;15275;51.716;14.324;2022-12-15T12:46:58;34.70;;;16.10;;
27939;SDS011;15275;51.716;14.324;2022-12-15T12:49:40;32.92;;;16.60;;
27939;SDS011;15275;51.716;14.324;2022-12-15T12:52:17;34.05;;;15.30;;
27939;SDS011;15275;51.716;14.324;2022-12-15T12:54:52;29.90;;;14.13;;
27939;SDS011;15275;51.716;14.324;2022-12-15T12:57:35;36.92;;;15.48;;
27939;SDS011;15275;51.716;14.324;2022-12-15T13:16:16;28.08;;;13.20;;
27939;SDS011;15275;51.716;14.324;2022-12-15T13:19:05;29.80;;;12.85;;
27939;SDS011;15275;51.716;14.324;2022-12-15T13:27:12;30.60;;;14.98;;
27939;SDS011;15275;51.716;14.324;2022-12-15T13:30:21;26.52;;;13.05;;
27939;SDS011;15275;51.716;14.324;2022-12-15T13:45:30;31.95;;;13.05;;
27939;SDS011;15275;51.716;14.324;2022-12-15T13:48:15;30.88;;;13.88;;
27939;SDS011;15275;51.716;14.324;2022-12-15T13:51:02;28.17;;;12.98;;
27939;SDS011;15275;51.716;14.324;2022-12-15T13:54:18;33.83;;;15.50;;
27939;SDS011;15275;51.716;14.324;2022-12-15T13:57:05;39.45;;;18.60;;
27939;SDS011;15275;51.716;14.324;2022-12-15T13:59:44;38.65;;;17.13;;
27939;SDS011;15275;51.716;14.324;2022-12-15T14:02:31;51.65;;;20.73;;
27939;SDS011;15275;51.716;14.324;2022-12-15T14:05:13;45.50;;;20.88;;
27939;SDS011;15275;51.716;14.324;2022-12-15T14:07:42;44.88;;;18.92;;
27939;SDS011;15275;51.716;14.324;2022-12-15T14:10:16;43.22;;;18.63;;
27939;SDS011;15275;51.716;14.324;2022-12-15T14:13:34;38.67;;;16.20;;
27939;SDS011;15275;51.716;14.324;2022-12-15T14:18:40;31.17;;;14.07;;
27939;SDS011;15275;51.716;14.324;2022-12-15T14:21:17;32.53;;;14.80;;
27939;SDS011;15275;51.716;14.324;2022-12-15T14:23:47;30.05;;;14.07;;
27939;SDS011;15275;51.716;14.324;2022-12-15T14:26:14;29.20;;;13.00;;
27939;SDS011;15275;51.716;14.324;2022-12-15T14:28:42;33.67;;;14.02;;
27939;SDS011;15275;51.716;14.324;2022-12-15T14:33:45;28.63;;;12.93;;
27939;SDS011;15275;51.716;14.324;2022-12-15T14:36:25;27.50;;;13.07;;
27939;SDS011;15275;51.716;14.324;2022-12-15T14:38:53;27.85;;;12.68;;
27939;SDS011;15275;51.716;14.324;2022-12-15T14:41:26;33.28;;;14.00;;
27939;SDS011;15275;51.716;14.324;2022-12-15T14:44:00;32.20;;;14.25;;
27939;SDS011;15275;51.716;14.324;2022-12-15T14:46:39;32.40;;;14.52;;
27939;SDS011;15275;51.716;14.324;2022-12-15T14:49:16;35.70;;;16.17;;
27939;SDS011;15275;51.716;14.324;2022-12-15T14:51:50;40.13;;;18.00;;
27939;SDS011;15275;51.716;14.324;2022-12-15T14:54:35;37.10;;;16.20;;
27939;SDS011;15275;51.716;14.324;2022-12-15T15:00:01;30.70;;;14.98;;
27939;SDS011;15275;51.716;14.324;2022-12-15T15:05:43;34.60;;;13.32;;
27939;SDS011;15275;51.716;14.324;2022-12-15T15:08:41;37.88;;;14.52;;
27939;SDS011;15275;51.716;14.324;2022-12-15T15:14:12;32.70;;;14.13;;
27939;SDS011;15275;51.716;14.324;2022-12-15T15:16:57;37.10;;;13.93;;
27939;SDS011;15275;51.716;14.324;2022-12-15T15:19:48;34.70;;;14.52;;
27939;SDS011;15275;51.716;14.324;2022-12-15T15:22:35;38.10;;;16.15;;
27939;SDS011;15275;51.716;14.324;2022-12-15T15:25:26;41.47;;;16.60;;
27939;SDS011;15275;51.716;14.324;2022-12-15T15:30:45;43.55;;;17.15;;
27939;SDS011;15275;51.716;14.324;2022-12-15T15:33:24;41.25;;;17.48;;
27939;SDS011;15275;51.716;14.324;2022-12-15T15:35:51;37.05;;;16.85;;
27939;SDS011;15275;51.716;14.324;2022-12-15T15:43:50;34.67;;;16.98;;
27939;SDS011;15275;51.716;14.324;2022-12-15T15:46:23;39.97;;;17.27;;
27939;SDS011;15275;51.716;14.324;2022-12-15T15:48:55;40.92;;;17.83;;
27939;SDS011;15275;51.716;14.324;2022-12-15T15:51:25;43.70;;;18.17;;
27939;SDS011;15275;51.716;14.324;2022-12-15T15:53:52;47.13;;;20.55;;
27939;SDS011;15275;51.716;14.324;2022-12-15T15:56:24;39.88;;;17.67;;
27939;SDS011;15275;51.716;14.324;2022-12-15T15:58:52;36.53;;;18.25;;
27939;SDS011;15275;51.716;14.324;2022-12-15T16:01:18;42.85;;;18.15;;
27939;SDS011;15275;51.716;14.324;2022-12-15T16:03:44;36.90;;;16.58;;
27939;SDS011;15275;51.716;14.324;2022-12-15T16:06:17;34.80;;;16.63;;
27939;SDS011;15275;51.716;14.324;2022-12-15T16:08:46;38.42;;;16.92;;
27939;SDS011;15275;51.716;14.324;2022-12-15T16:11:16;44.67;;;17.80;;
27939;SDS011;15275;51.716;14.324;2022-12-15T16:13:42;41.45;;;18.30;;
27939;SDS011;15275;51.716;14.324;2022-12-15T16:16:19;49.58;;;20.35;;
27939;SDS011;15275;51.716;14.324;2022-12-15T16:18:55;49.90;;;20.20;;
27939;SDS011;15275;51.716;14.324;2022-12-15T16:21:22;41.78;;;18.02;;
27939;SDS011;15275;51.716;14.324;2022-12-15T16:23:51;47.58;;;19.40;;
27939;SDS011;15275;51.716;14.324;2022-12-15T16:26:22;50.83;;;19.85;;
27939;SDS011;15275;51.716;14.324;2022-12-15T16:28:53;51.90;;;22.67;;
27939;SDS011;15275;51.716;14.324;2022-12-15T16:31:27;59.33;;;23.02;;
27939;SDS011;15275;51.716;14.324;2022-12-15T16:33:55;65.80;;;23.95;;
27939;SDS011;15275;51.716;14.324;2022-12-15T16:36:21;57.08;;;22.35;;
27939;SDS011;15275;51.716;14.324;2022-12-15T16:38:47;52.88;;;21.90;;
27939;SDS011;15275;51.716;14.324;2022-12-15T16:41:15;53.08;;;20.95;;
27939;SDS011;15275;51.716;14.324;2022-12-15T16:43:42;45.42;;;17.75;;
27939;SDS011;15275;51.716;14.324;2022-12-15T16:46:11;52.85;;;21.38;;
27939;SDS011;15275;51.716;14.324;2022-12-15T16:48:38;51.63;;;21.73;;
27939;SDS011;15275;51.716;14.324;2022-12-15T16:51:05;48.03;;;19.80;;
27939;SDS011;15275;51.716;14.324;2022-12-15T16:53:34;45.55;;;18.55;;
27939;SDS011;15275;51.716;14.324;2022-12-15T16:56:06;44.58;;;17.40;;
27939;SDS011;15275;51.716;14.324;2022-12-15T16:58:37;36.20;;;15.50;;
27939;SDS011;15275;51.716;14.324;2022-12-15T17:01:03;37.65;;;14.35;;
27939;SDS011;15275;51.716;14.324;2022-12-15T17:03:29;33.03;;;14.52;;
27939;SDS011;15275;51.716;14.324;2022-12-15T17:06:03;39.85;;;16.15;;
27939;SDS011;15275;51.716;14.324;2022-12-15T17:08:38;36.38;;;14.88;;
27939;SDS011;15275;51.716;14.324;2022-12-15T17:11:16;30.77;;;14.00;;
27939;SDS011;15275;51.716;14.324;2022-12-15T17:13:45;35.97;;;14.98;;
27939;SDS011;15275;51.716;14.324;2022-12-15T17:16:15;35.83;;;14.43;;